sensor_id;sensor_type;location;lat;lon;timestamp;temperature;humidity
51637;DHT22;37713;53.254;6.460;2023-12-07T00:01:55;2.00;99.90
51637;DHT22;37713;53.254;6.460;2023-12-07T00:04:21;2.00;99.90
51637;DHT22;37713;53.254;6.460;2023-12-07T00:06:47;2.00;99.90
51637;DHT22;37713;53.254;6.460;2023-12-07T00:09:13;2.00;99.90
51637;DHT22;37713;53.254;6.460;2023-12-07T00:11:39;2.00;99.90
51637;DHT22;37713;53.254;6.460;2023-12-07T00:14:05;2.00;99.90
51637;DHT22;37713;53.254;6.460;2023-12-07T00:16:30;2.00;99.90
51637;DHT22;37713;53.254;6.460;2023-12-07T00:18:57;2.00;99.90
51637;DHT22;37713;53.254;6.460;2023-12-07T00:21:22;2.00;99.90
51637;DHT22;37713;53.254;6.460;2023-12-07T00:23:48;2.00;99.90
51637;DHT22;37713;53.254;6.460;2023-12-07T00:26:14;2.10;99.90
51637;DHT22;37713;53.254;6.460;2023-12-07T00:28:40;2.00;99.90
51637;DHT22;37713;53.254;6.460;2023-12-07T00:31:05;2.00;99.90
51637;DHT22;37713;53.254;6.460;2023-12-07T00:33:31;2.00;99.90
51637;DHT22;37713;53.254;6.460;2023-12-07T00:35:57;2.00;99.90
51637;DHT22;37713;53.254;6.460;2023-12-07T00:38:23;2.00;99.90
51637;DHT22;37713;53.254;6.460;2023-12-07T00:40:48;2.10;99.90
51637;DHT22;37713;53.254;6.460;2023-12-07T00:43:14;2.30;99.90
51637;DHT22;37713;53.254;6.460;2023-12-07T00:45:40;2.10;99.90
51637;DHT22;37713;53.254;6.460;2023-12-07T00:48:06;2.10;99.90
51637;DHT22;37713;53.254;6.460;2023-12-07T00:50:32;2.10;99.90
51637;DHT22;37713;53.254;6.460;2023-12-07T00:52:57;2.10;99.90
51637;DHT22;37713;53.254;6.460;2023-12-07T00:55:24;2.10;99.90
51637;DHT22;37713;53.254;6.460;2023-12-07T00:57:49;2.00;99.90
51637;DHT22;37713;53.254;6.460;2023-12-07T01:00:15;2.20;99.90
51637;DHT22;37713;53.254;6.460;2023-12-07T01:02:41;2.10;99.90
51637;DHT22;37713;53.254;6.460;2023-12-07T01:05:07;2.10;99.90
51637;DHT22;37713;53.254;6.460;2023-12-07T01:07:34;2.00;99.90
51637;DHT22;37713;53.254;6.460;2023-12-07T01:10:00;2.00;99.90
51637;DHT22;37713;53.254;6.460;2023-12-07T01:12:25;2.10;99.90
51637;DHT22;37713;53.254;6.460;2023-12-07T01:14:51;2.00;99.90
51637;DHT22;37713;53.254;6.460;2023-12-07T01:17:17;2.20;99.90
51637;DHT22;37713;53.254;6.460;2023-12-07T01:19:43;2.00;99.90
51637;DHT22;37713;53.254;6.460;2023-12-07T01:22:09;2.00;99.90
51637;DHT22;37713;53.254;6.460;2023-12-07T01:24:34;2.00;99.90
51637;DHT22;37713;53.254;6.460;2023-12-07T01:27:00;2.00;99.90
51637;DHT22;37713;53.254;6.460;2023-12-07T01:29:26;2.00;99.90
51637;DHT22;37713;53.254;6.460;2023-12-07T01:31:52;1.90;99.90
51637;DHT22;37713;53.254;6.460;2023-12-07T01:34:18;1.90;99.90
51637;DHT22;37713;53.254;6.460;2023-12-07T01:36:44;2.20;99.90
51637;DHT22;37713;53.254;6.460;2023-12-07T01:39:10;2.30;99.90
51637;DHT22;37713;53.254;6.460;2023-12-07T01:41:39;1.90;99.90
51637;DHT22;37713;53.254;6.460;2023-12-07T01:44:05;1.90;99.90
51637;DHT22;37713;53.254;6.460;2023-12-07T01:46:32;1.90;99.90
51637;DHT22;37713;53.254;6.460;2023-12-07T01:48:59;1.90;99.90
51637;DHT22;37713;53.254;6.460;2023-12-07T01:51:25;1.90;99.90
51637;DHT22;37713;53.254;6.460;2023-12-07T01:53:52;1.90;99.90
51637;DHT22;37713;53.254;6.460;2023-12-07T01:56:18;2.30;99.90
51637;DHT22;37713;53.254;6.460;2023-12-07T01:58:44;1.90;99.90
51637;DHT22;37713;53.254;6.460;2023-12-07T02:01:11;2.10;99.90
51637;DHT22;37713;53.254;6.460;2023-12-07T02:03:41;1.80;99.90
51637;DHT22;37713;53.254;6.460;2023-12-07T02:06:07;2.00;99.90
51637;DHT22;37713;53.254;6.460;2023-12-07T02:08:35;1.90;99.90
51637;DHT22;37713;53.254;6.460;2023-12-07T02:11:00;1.90;99.90
51637;DHT22;37713;53.254;6.460;2023-12-07T02:13:26;1.90;99.90
51637;DHT22;37713;53.254;6.460;2023-12-07T02:15:55;2.00;99.90
51637;DHT22;37713;53.254;6.460;2023-12-07T02:18:25;2.00;99.90
51637;DHT22;37713;53.254;6.460;2023-12-07T02:21:08;2.00;99.90
51637;DHT22;37713;53.254;6.460;2023-12-07T02:23:37;2.00;99.90
51637;DHT22;37713;53.254;6.460;2023-12-07T02:26:07;2.00;99.90
51637;DHT22;37713;53.254;6.460;2023-12-07T02:28:34;2.00;99.90
51637;DHT22;37713;53.254;6.460;2023-12-07T02:31:00;2.00;99.90
51637;DHT22;37713;53.254;6.460;2023-12-07T02:33:25;1.90;99.90
51637;DHT22;37713;53.254;6.460;2023-12-07T02:35:51;1.90;99.90
51637;DHT22;37713;53.254;6.460;2023-12-07T02:38:18;1.90;99.90
51637;DHT22;37713;53.254;6.460;2023-12-07T02:40:48;1.90;99.90
51637;DHT22;37713;53.254;6.460;2023-12-07T02:43:15;1.90;99.90
51637;DHT22;37713;53.254;6.460;2023-12-07T02:45:41;1.90;99.90
51637;DHT22;37713;53.254;6.460;2023-12-07T02:48:07;1.90;99.90
51637;DHT22;37713;53.254;6.460;2023-12-07T02:50:32;2.00;99.90
51637;DHT22;37713;53.254;6.460;2023-12-07T02:52:58;2.00;99.90
51637;DHT22;37713;53.254;6.460;2023-12-07T02:55:24;2.00;99.90
51637;DHT22;37713;53.254;6.460;2023-12-07T02:57:50;2.00;99.90
51637;DHT22;37713;53.254;6.460;2023-12-07T03:00:17;2.00;99.90
51637;DHT22;37713;53.254;6.460;2023-12-07T03:02:43;2.00;99.90
51637;DHT22;37713;53.254;6.460;2023-12-07T03:05:08;2.00;99.90
51637;DHT22;37713;53.254;6.460;2023-12-07T03:07:34;2.00;99.90
51637;DHT22;37713;53.254;6.460;2023-12-07T03:10:00;2.00;99.90
51637;DHT22;37713;53.254;6.460;2023-12-07T03:12:26;2.00;99.90
51637;DHT22;37713;53.254;6.460;2023-12-07T03:14:52;2.00;99.90
51637;DHT22;37713;53.254;6.460;2023-12-07T03:17:18;1.90;99.90
51637;DHT22;37713;53.254;6.460;2023-12-07T03:19:44;2.00;99.90
51637;DHT22;37713;53.254;6.460;2023-12-07T03:22:10;1.90;99.90
51637;DHT22;37713;53.254;6.460;2023-12-07T03:24:36;1.90;99.90
51637;DHT22;37713;53.254;6.460;2023-12-07T03:27:03;1.90;99.90
51637;DHT22;37713;53.254;6.460;2023-12-07T03:29:30;1.90;99.90
51637;DHT22;37713;53.254;6.460;2023-12-07T03:31:55;1.90;99.90
51637;DHT22;37713;53.254;6.460;2023-12-07T03:34:21;1.80;99.90
51637;DHT22;37713;53.254;6.460;2023-12-07T03:36:47;1.80;99.90
51637;DHT22;37713;53.254;6.460;2023-12-07T03:39:15;1.80;99.90
51637;DHT22;37713;53.254;6.460;2023-12-07T03:41:41;1.80;99.90
51637;DHT22;37713;53.254;6.460;2023-12-07T03:44:07;1.70;99.90
51637;DHT22;37713;53.254;6.460;2023-12-07T03:46:33;1.70;99.90
51637;DHT22;37713;53.254;6.460;2023-12-07T03:48:59;1.70;99.90
51637;DHT22;37713;53.254;6.460;2023-12-07T03:51:28;1.80;99.90
51637;DHT22;37713;53.254;6.460;2023-12-07T03:53:54;1.90;99.90
51637;DHT22;37713;53.254;6.460;2023-12-07T03:56:28;2.10;99.90
51637;DHT22;37713;53.254;6.460;2023-12-07T03:58:54;1.80;99.90
51637;DHT22;37713;53.254;6.460;2023-12-07T04:01:28;1.90;99.90
51637;DHT22;37713;53.254;6.460;2023-12-07T04:03:55;1.70;99.90
51637;DHT22;37713;53.254;6.460;2023-12-07T04:06:22;1.70;99.90
51637;DHT22;37713;53.254;6.460;2023-12-07T04:08:48;1.80;99.90
51637;DHT22;37713;53.254;6.460;2023-12-07T04:11:15;1.70;99.90
51637;DHT22;37713;53.254;6.460;2023-12-07T04:13:41;1.70;99.90
51637;DHT22;37713;53.254;6.460;2023-12-07T04:16:10;1.70;99.90
51637;DHT22;37713;53.254;6.460;2023-12-07T04:18:36;1.60;99.90
51637;DHT22;37713;53.254;6.460;2023-12-07T04:21:02;1.70;99.90
51637;DHT22;37713;53.254;6.460;2023-12-07T04:23:29;1.60;99.90
51637;DHT22;37713;53.254;6.460;2023-12-07T04:25:55;1.60;99.90
51637;DHT22;37713;53.254;6.460;2023-12-07T04:28:21;1.60;99.90
51637;DHT22;37713;53.254;6.460;2023-12-07T04:30:47;1.60;99.90
51637;DHT22;37713;53.254;6.460;2023-12-07T04:33:12;1.60;99.90
51637;DHT22;37713;53.254;6.460;2023-12-07T04:35:38;1.60;99.90
51637;DHT22;37713;53.254;6.460;2023-12-07T04:38:04;1.60;99.90
51637;DHT22;37713;53.254;6.460;2023-12-07T04:40:30;1.60;99.90
51637;DHT22;37713;53.254;6.460;2023-12-07T04:42:56;1.60;99.90
51637;DHT22;37713;53.254;6.460;2023-12-07T04:45:21;1.60;99.90
51637;DHT22;37713;53.254;6.460;2023-12-07T04:47:47;1.60;99.90
51637;DHT22;37713;53.254;6.460;2023-12-07T04:50:14;1.60;99.90
51637;DHT22;37713;53.254;6.460;2023-12-07T04:52:40;1.60;99.90
51637;DHT22;37713;53.254;6.460;2023-12-07T04:55:06;1.60;99.90
51637;DHT22;37713;53.254;6.460;2023-12-07T04:57:34;1.60;99.90
51637;DHT22;37713;53.254;6.460;2023-12-07T05:00:00;1.60;99.90
51637;DHT22;37713;53.254;6.460;2023-12-07T05:02:26;1.70;99.90
51637;DHT22;37713;53.254;6.460;2023-12-07T05:04:53;1.80;99.90
51637;DHT22;37713;53.254;6.460;2023-12-07T05:07:19;1.90;99.90
51637;DHT22;37713;53.254;6.460;2023-12-07T05:09:45;1.60;99.90
51637;DHT22;37713;53.254;6.460;2023-12-07T05:12:11;1.70;99.90
51637;DHT22;37713;53.254;6.460;2023-12-07T05:14:37;1.70;99.90
51637;DHT22;37713;53.254;6.460;2023-12-07T05:17:03;1.70;99.90
51637;DHT22;37713;53.254;6.460;2023-12-07T05:19:30;1.60;99.90
51637;DHT22;37713;53.254;6.460;2023-12-07T05:21:56;1.80;99.90
51637;DHT22;37713;53.254;6.460;2023-12-07T05:24:22;1.90;99.90
51637;DHT22;37713;53.254;6.460;2023-12-07T05:26:48;1.60;99.90
51637;DHT22;37713;53.254;6.460;2023-12-07T05:29:15;1.70;99.90
51637;DHT22;37713;53.254;6.460;2023-12-07T05:31:41;1.70;99.90
51637;DHT22;37713;53.254;6.460;2023-12-07T05:34:10;1.70;99.90
51637;DHT22;37713;53.254;6.460;2023-12-07T05:36:36;1.60;99.90
51637;DHT22;37713;53.254;6.460;2023-12-07T05:39:02;1.60;99.90
51637;DHT22;37713;53.254;6.460;2023-12-07T05:41:28;1.60;99.90
51637;DHT22;37713;53.254;6.460;2023-12-07T05:43:54;1.60;99.90
51637;DHT22;37713;53.254;6.460;2023-12-07T05:46:20;1.60;99.90
51637;DHT22;37713;53.254;6.460;2023-12-07T05:48:46;1.60;99.90
51637;DHT22;37713;53.254;6.460;2023-12-07T05:51:16;1.60;99.90
51637;DHT22;37713;53.254;6.460;2023-12-07T05:53:43;1.60;99.90
51637;DHT22;37713;53.254;6.460;2023-12-07T05:56:09;1.60;99.90
51637;DHT22;37713;53.254;6.460;2023-12-07T05:58:35;1.50;99.90
51637;DHT22;37713;53.254;6.460;2023-12-07T06:01:01;1.60;99.90
51637;DHT22;37713;53.254;6.460;2023-12-07T06:03:29;1.60;99.90
51637;DHT22;37713;53.254;6.460;2023-12-07T06:05:55;1.60;99.90
51637;DHT22;37713;53.254;6.460;2023-12-07T06:08:22;1.50;99.90
51637;DHT22;37713;53.254;6.460;2023-12-07T06:10:48;1.90;99.90
51637;DHT22;37713;53.254;6.460;2023-12-07T06:13:14;1.50;99.90
51637;DHT22;37713;53.254;6.460;2023-12-07T06:15:40;1.50;99.90
51637;DHT22;37713;53.254;6.460;2023-12-07T06:18:08;1.50;99.90
51637;DHT22;37713;53.254;6.460;2023-12-07T06:20:33;1.80;99.90
51637;DHT22;37713;53.254;6.460;2023-12-07T06:23:00;1.50;99.90
51637;DHT22;37713;53.254;6.460;2023-12-07T06:25:27;1.50;99.90
51637;DHT22;37713;53.254;6.460;2023-12-07T06:27:53;1.50;99.90
51637;DHT22;37713;53.254;6.460;2023-12-07T06:30:19;1.80;99.90
51637;DHT22;37713;53.254;6.460;2023-12-07T06:32:44;1.50;99.90
51637;DHT22;37713;53.254;6.460;2023-12-07T06:35:13;1.50;99.90
51637;DHT22;37713;53.254;6.460;2023-12-07T06:37:39;1.50;99.90
51637;DHT22;37713;53.254;6.460;2023-12-07T06:40:08;1.50;99.90
51637;DHT22;37713;53.254;6.460;2023-12-07T06:42:35;1.50;99.90
51637;DHT22;37713;53.254;6.460;2023-12-07T06:45:01;1.60;99.90
51637;DHT22;37713;53.254;6.460;2023-12-07T06:47:27;1.50;99.90
51637;DHT22;37713;53.254;6.460;2023-12-07T06:49:53;1.60;99.90
51637;DHT22;37713;53.254;6.460;2023-12-07T06:52:19;1.60;99.90
51637;DHT22;37713;53.254;6.460;2023-12-07T06:54:45;1.60;99.90
51637;DHT22;37713;53.254;6.460;2023-12-07T06:57:12;1.60;99.90
51637;DHT22;37713;53.254;6.460;2023-12-07T06:59:38;1.50;99.90
51637;DHT22;37713;53.254;6.460;2023-12-07T07:02:04;1.50;99.90
51637;DHT22;37713;53.254;6.460;2023-12-07T07:04:29;1.60;99.90
51637;DHT22;37713;53.254;6.460;2023-12-07T07:06:55;1.50;99.90
51637;DHT22;37713;53.254;6.460;2023-12-07T07:09:22;1.60;99.90
51637;DHT22;37713;53.254;6.460;2023-12-07T07:11:48;1.60;99.90
51637;DHT22;37713;53.254;6.460;2023-12-07T07:14:14;1.70;99.90
51637;DHT22;37713;53.254;6.460;2023-12-07T07:16:41;1.60;99.90
51637;DHT22;37713;53.254;6.460;2023-12-07T07:19:07;1.60;99.90
51637;DHT22;37713;53.254;6.460;2023-12-07T07:21:32;1.60;99.90
51637;DHT22;37713;53.254;6.460;2023-12-07T07:23:58;1.60;99.90
51637;DHT22;37713;53.254;6.460;2023-12-07T07:26:24;1.60;99.90
51637;DHT22;37713;53.254;6.460;2023-12-07T07:28:52;1.60;99.90
51637;DHT22;37713;53.254;6.460;2023-12-07T07:31:18;1.60;99.90
51637;DHT22;37713;53.254;6.460;2023-12-07T07:33:44;1.60;99.90
51637;DHT22;37713;53.254;6.460;2023-12-07T07:36:10;1.60;99.90
51637;DHT22;37713;53.254;6.460;2023-12-07T07:38:37;1.60;99.90
51637;DHT22;37713;53.254;6.460;2023-12-07T07:41:03;1.60;99.90
51637;DHT22;37713;53.254;6.460;2023-12-07T07:43:29;1.90;99.90
51637;DHT22;37713;53.254;6.460;2023-12-07T07:45:55;1.60;99.90
51637;DHT22;37713;53.254;6.460;2023-12-07T07:48:21;1.70;99.90
51637;DHT22;37713;53.254;6.460;2023-12-07T07:50:47;1.60;99.90
51637;DHT22;37713;53.254;6.460;2023-12-07T07:53:13;1.60;99.90
51637;DHT22;37713;53.254;6.460;2023-12-07T07:55:39;1.70;99.90
51637;DHT22;37713;53.254;6.460;2023-12-07T07:58:05;1.70;99.90
51637;DHT22;37713;53.254;6.460;2023-12-07T08:00:31;1.90;99.90
51637;DHT22;37713;53.254;6.460;2023-12-07T08:02:58;1.90;99.90
51637;DHT22;37713;53.254;6.460;2023-12-07T08:05:24;1.70;99.90
51637;DHT22;37713;53.254;6.460;2023-12-07T08:07:50;2.00;99.90
51637;DHT22;37713;53.254;6.460;2023-12-07T08:10:16;1.80;99.90
51637;DHT22;37713;53.254;6.460;2023-12-07T08:12:42;1.80;99.90
51637;DHT22;37713;53.254;6.460;2023-12-07T08:15:09;1.80;99.90
51637;DHT22;37713;53.254;6.460;2023-12-07T08:17:41;1.80;99.90
51637;DHT22;37713;53.254;6.460;2023-12-07T08:20:11;1.80;99.90
51637;DHT22;37713;53.254;6.460;2023-12-07T08:22:38;1.90;99.90
51637;DHT22;37713;53.254;6.460;2023-12-07T08:25:04;1.90;99.90
51637;DHT22;37713;53.254;6.460;2023-12-07T08:27:34;1.90;99.90
51637;DHT22;37713;53.254;6.460;2023-12-07T08:30:00;2.00;99.90
51637;DHT22;37713;53.254;6.460;2023-12-07T08:32:26;2.00;99.90
51637;DHT22;37713;53.254;6.460;2023-12-07T08:34:52;2.00;99.90
51637;DHT22;37713;53.254;6.460;2023-12-07T08:37:18;2.10;99.90
51637;DHT22;37713;53.254;6.460;2023-12-07T08:39:44;2.10;99.90
51637;DHT22;37713;53.254;6.460;2023-12-07T08:42:10;2.10;99.90
51637;DHT22;37713;53.254;6.460;2023-12-07T08:44:37;2.10;99.90
51637;DHT22;37713;53.254;6.460;2023-12-07T08:47:02;2.00;99.90
51637;DHT22;37713;53.254;6.460;2023-12-07T08:49:29;2.10;99.90
51637;DHT22;37713;53.254;6.460;2023-12-07T08:51:54;2.00;99.90
51637;DHT22;37713;53.254;6.460;2023-12-07T08:54:21;2.00;99.90
51637;DHT22;37713;53.254;6.460;2023-12-07T08:56:48;2.00;99.90
51637;DHT22;37713;53.254;6.460;2023-12-07T08:59:13;2.00;99.90
51637;DHT22;37713;53.254;6.460;2023-12-07T09:01:39;2.00;99.90
51637;DHT22;37713;53.254;6.460;2023-12-07T09:04:05;2.10;99.90
51637;DHT22;37713;53.254;6.460;2023-12-07T09:06:31;2.10;99.90
51637;DHT22;37713;53.254;6.460;2023-12-07T09:08:57;2.10;99.90
51637;DHT22;37713;53.254;6.460;2023-12-07T09:11:23;2.20;99.90
51637;DHT22;37713;53.254;6.460;2023-12-07T09:13:49;2.20;99.90
51637;DHT22;37713;53.254;6.460;2023-12-07T09:16:15;2.20;99.90
51637;DHT22;37713;53.254;6.460;2023-12-07T09:18:42;2.30;99.90
51637;DHT22;37713;53.254;6.460;2023-12-07T09:21:08;2.30;99.90
51637;DHT22;37713;53.254;6.460;2023-12-07T09:23:34;2.20;99.90
51637;DHT22;37713;53.254;6.460;2023-12-07T09:26:00;2.20;99.90
51637;DHT22;37713;53.254;6.460;2023-12-07T09:28:26;2.20;99.90
51637;DHT22;37713;53.254;6.460;2023-12-07T09:30:52;2.20;99.90
51637;DHT22;37713;53.254;6.460;2023-12-07T09:33:18;2.40;99.90
51637;DHT22;37713;53.254;6.460;2023-12-07T09:35:44;2.10;99.90
51637;DHT22;37713;53.254;6.460;2023-12-07T09:38:10;2.10;99.90
51637;DHT22;37713;53.254;6.460;2023-12-07T09:40:36;2.00;99.90
51637;DHT22;37713;53.254;6.460;2023-12-07T09:43:02;2.00;99.90
51637;DHT22;37713;53.254;6.460;2023-12-07T09:45:28;2.00;99.90
51637;DHT22;37713;53.254;6.460;2023-12-07T09:47:54;2.00;99.90
51637;DHT22;37713;53.254;6.460;2023-12-07T09:50:22;2.20;99.90
51637;DHT22;37713;53.254;6.460;2023-12-07T09:52:49;2.00;99.90
51637;DHT22;37713;53.254;6.460;2023-12-07T09:55:19;2.00;99.90
51637;DHT22;37713;53.254;6.460;2023-12-07T09:57:46;2.10;99.90
51637;DHT22;37713;53.254;6.460;2023-12-07T10:00:12;2.00;99.90
51637;DHT22;37713;53.254;6.460;2023-12-07T10:02:41;2.10;99.90
51637;DHT22;37713;53.254;6.460;2023-12-07T10:05:12;2.10;99.90
51637;DHT22;37713;53.254;6.460;2023-12-07T10:07:44;2.10;99.90
51637;DHT22;37713;53.254;6.460;2023-12-07T10:10:10;2.10;99.90
51637;DHT22;37713;53.254;6.460;2023-12-07T10:12:45;2.10;99.90
51637;DHT22;37713;53.254;6.460;2023-12-07T10:15:15;2.20;99.90
51637;DHT22;37713;53.254;6.460;2023-12-07T10:17:51;2.10;99.90
51637;DHT22;37713;53.254;6.460;2023-12-07T10:20:20;2.20;99.90
51637;DHT22;37713;53.254;6.460;2023-12-07T10:23:05;2.20;99.90
51637;DHT22;37713;53.254;6.460;2023-12-07T10:25:38;2.20;99.90
51637;DHT22;37713;53.254;6.460;2023-12-07T10:28:05;2.20;99.90
51637;DHT22;37713;53.254;6.460;2023-12-07T10:30:37;2.20;99.90
51637;DHT22;37713;53.254;6.460;2023-12-07T10:33:04;2.20;99.90
51637;DHT22;37713;53.254;6.460;2023-12-07T10:35:31;2.20;99.90
51637;DHT22;37713;53.254;6.460;2023-12-07T10:37:57;2.30;99.90
51637;DHT22;37713;53.254;6.460;2023-12-07T10:40:23;2.30;99.90
51637;DHT22;37713;53.254;6.460;2023-12-07T10:42:53;2.30;99.90
51637;DHT22;37713;53.254;6.460;2023-12-07T10:45:25;2.40;99.90
51637;DHT22;37713;53.254;6.460;2023-12-07T10:47:54;2.40;99.90
51637;DHT22;37713;53.254;6.460;2023-12-07T10:50:23;2.40;99.90
51637;DHT22;37713;53.254;6.460;2023-12-07T10:52:53;2.40;99.90
51637;DHT22;37713;53.254;6.460;2023-12-07T10:55:30;2.50;99.90
51637;DHT22;37713;53.254;6.460;2023-12-07T10:58:02;2.50;99.90
51637;DHT22;37713;53.254;6.460;2023-12-07T11:00:29;2.50;99.90
51637;DHT22;37713;53.254;6.460;2023-12-07T11:02:55;2.60;99.90
51637;DHT22;37713;53.254;6.460;2023-12-07T11:05:21;2.60;99.90
51637;DHT22;37713;53.254;6.460;2023-12-07T11:10:27;2.70;99.90
51637;DHT22;37713;53.254;6.460;2023-12-07T11:13:05;2.80;99.90
51637;DHT22;37713;53.254;6.460;2023-12-07T11:15:34;2.80;99.90
51637;DHT22;37713;53.254;6.460;2023-12-07T11:18:02;2.90;99.90
51637;DHT22;37713;53.254;6.460;2023-12-07T11:20:44;2.90;99.90
51637;DHT22;37713;53.254;6.460;2023-12-07T11:23:16;2.90;99.90
51637;DHT22;37713;53.254;6.460;2023-12-07T11:25:43;3.00;99.90
51637;DHT22;37713;53.254;6.460;2023-12-07T11:28:11;3.00;99.90
51637;DHT22;37713;53.254;6.460;2023-12-07T11:30:37;3.10;99.90
51637;DHT22;37713;53.254;6.460;2023-12-07T11:33:04;3.20;99.90
51637;DHT22;37713;53.254;6.460;2023-12-07T11:35:31;3.10;99.90
51637;DHT22;37713;53.254;6.460;2023-12-07T11:38:04;3.10;99.90
51637;DHT22;37713;53.254;6.460;2023-12-07T11:40:41;3.20;99.90
51637;DHT22;37713;53.254;6.460;2023-12-07T11:43:08;3.20;99.90
51637;DHT22;37713;53.254;6.460;2023-12-07T11:45:48;3.20;99.90
51637;DHT22;37713;53.254;6.460;2023-12-07T11:48:15;3.30;99.90
51637;DHT22;37713;53.254;6.460;2023-12-07T11:51:06;3.30;99.90
51637;DHT22;37713;53.254;6.460;2023-12-07T11:53:37;3.40;99.90
51637;DHT22;37713;53.254;6.460;2023-12-07T11:56:08;3.40;99.90
51637;DHT22;37713;53.254;6.460;2023-12-07T11:58:36;3.40;99.90
51637;DHT22;37713;53.254;6.460;2023-12-07T12:01:03;3.40;99.90
51637;DHT22;37713;53.254;6.460;2023-12-07T12:03:31;3.40;99.90
51637;DHT22;37713;53.254;6.460;2023-12-07T12:05:58;3.50;99.90
51637;DHT22;37713;53.254;6.460;2023-12-07T12:08:24;3.50;99.90
51637;DHT22;37713;53.254;6.460;2023-12-07T12:10:50;3.50;99.90
51637;DHT22;37713;53.254;6.460;2023-12-07T12:13:30;3.50;99.90
51637;DHT22;37713;53.254;6.460;2023-12-07T12:15:59;3.60;99.90
51637;DHT22;37713;53.254;6.460;2023-12-07T12:18:29;3.60;99.90
51637;DHT22;37713;53.254;6.460;2023-12-07T12:20:55;3.60;99.90
51637;DHT22;37713;53.254;6.460;2023-12-07T12:23:26;3.60;99.90
51637;DHT22;37713;53.254;6.460;2023-12-07T12:25:54;3.60;99.90
51637;DHT22;37713;53.254;6.460;2023-12-07T12:28:20;3.60;99.90
51637;DHT22;37713;53.254;6.460;2023-12-07T12:30:48;3.60;99.90
51637;DHT22;37713;53.254;6.460;2023-12-07T12:33:14;3.60;99.90
51637;DHT22;37713;53.254;6.460;2023-12-07T12:35:43;3.60;99.90
51637;DHT22;37713;53.254;6.460;2023-12-07T12:38:13;3.70;99.90
51637;DHT22;37713;53.254;6.460;2023-12-07T12:40:39;3.60;99.90
51637;DHT22;37713;53.254;6.460;2023-12-07T12:43:07;3.60;99.90
51637;DHT22;37713;53.254;6.460;2023-12-07T12:45:33;3.60;99.90
51637;DHT22;37713;53.254;6.460;2023-12-07T12:48:00;3.60;99.90
51637;DHT22;37713;53.254;6.460;2023-12-07T12:50:52;3.50;99.90
51637;DHT22;37713;53.254;6.460;2023-12-07T12:53:18;3.40;99.90
51637;DHT22;37713;53.254;6.460;2023-12-07T12:55:47;3.30;99.90
51637;DHT22;37713;53.254;6.460;2023-12-07T12:58:12;3.10;99.90
51637;DHT22;37713;53.254;6.460;2023-12-07T13:00:39;2.90;99.90
51637;DHT22;37713;53.254;6.460;2023-12-07T13:03:06;2.70;99.90
51637;DHT22;37713;53.254;6.460;2023-12-07T13:05:32;2.60;99.90
51637;DHT22;37713;53.254;6.460;2023-12-07T13:08:00;2.50;99.90
51637;DHT22;37713;53.254;6.460;2023-12-07T13:10:27;2.60;99.90
51637;DHT22;37713;53.254;6.460;2023-12-07T13:12:56;2.40;99.90
51637;DHT22;37713;53.254;6.460;2023-12-07T13:15:22;2.30;99.90
51637;DHT22;37713;53.254;6.460;2023-12-07T13:17:48;2.20;99.90
51637;DHT22;37713;53.254;6.460;2023-12-07T13:20:14;2.10;99.90
51637;DHT22;37713;53.254;6.460;2023-12-07T13:22:41;2.10;99.90
51637;DHT22;37713;53.254;6.460;2023-12-07T13:25:09;2.10;99.90
51637;DHT22;37713;53.254;6.460;2023-12-07T13:27:36;2.00;99.90
51637;DHT22;37713;53.254;6.460;2023-12-07T13:30:05;2.00;99.90
51637;DHT22;37713;53.254;6.460;2023-12-07T13:32:35;1.90;99.90
51637;DHT22;37713;53.254;6.460;2023-12-07T13:35:08;1.90;99.90
51637;DHT22;37713;53.254;6.460;2023-12-07T13:37:34;1.80;99.90
51637;DHT22;37713;53.254;6.460;2023-12-07T13:39:59;1.70;99.90
51637;DHT22;37713;53.254;6.460;2023-12-07T13:42:27;1.60;99.90
51637;DHT22;37713;53.254;6.460;2023-12-07T13:44:57;1.40;99.90
51637;DHT22;37713;53.254;6.460;2023-12-07T13:47:24;1.40;99.90
51637;DHT22;37713;53.254;6.460;2023-12-07T13:49:58;1.40;99.90
51637;DHT22;37713;53.254;6.460;2023-12-07T13:52:24;1.40;99.90
51637;DHT22;37713;53.254;6.460;2023-12-07T13:54:50;1.40;99.90
51637;DHT22;37713;53.254;6.460;2023-12-07T13:57:17;1.30;99.90
51637;DHT22;37713;53.254;6.460;2023-12-07T13:59:43;1.30;99.90
51637;DHT22;37713;53.254;6.460;2023-12-07T14:02:09;1.40;99.90
51637;DHT22;37713;53.254;6.460;2023-12-07T14:04:36;1.20;99.90
51637;DHT22;37713;53.254;6.460;2023-12-07T14:07:15;1.50;99.90
51637;DHT22;37713;53.254;6.460;2023-12-07T14:09:43;1.30;99.90
51637;DHT22;37713;53.254;6.460;2023-12-07T14:12:09;1.20;99.90
51637;DHT22;37713;53.254;6.460;2023-12-07T14:14:42;1.20;99.90
51637;DHT22;37713;53.254;6.460;2023-12-07T14:17:15;1.10;99.90
51637;DHT22;37713;53.254;6.460;2023-12-07T14:19:41;1.30;99.90
51637;DHT22;37713;53.254;6.460;2023-12-07T14:22:07;1.00;99.90
51637;DHT22;37713;53.254;6.460;2023-12-07T14:24:37;1.10;99.90
51637;DHT22;37713;53.254;6.460;2023-12-07T14:27:04;1.40;99.90
51637;DHT22;37713;53.254;6.460;2023-12-07T14:29:30;1.10;99.90
51637;DHT22;37713;53.254;6.460;2023-12-07T14:31:58;1.10;99.90
51637;DHT22;37713;53.254;6.460;2023-12-07T14:34:25;1.10;99.90
51637;DHT22;37713;53.254;6.460;2023-12-07T14:36:55;1.10;99.90
51637;DHT22;37713;53.254;6.460;2023-12-07T14:39:21;1.30;99.90
51637;DHT22;37713;53.254;6.460;2023-12-07T14:41:48;1.10;99.90
51637;DHT22;37713;53.254;6.460;2023-12-07T14:44:14;1.10;99.90
51637;DHT22;37713;53.254;6.460;2023-12-07T14:46:47;1.30;99.90
51637;DHT22;37713;53.254;6.460;2023-12-07T14:49:14;1.10;99.90
51637;DHT22;37713;53.254;6.460;2023-12-07T14:51:40;1.10;99.90
51637;DHT22;37713;53.254;6.460;2023-12-07T14:54:07;1.10;99.90
51637;DHT22;37713;53.254;6.460;2023-12-07T14:56:35;1.10;99.90
51637;DHT22;37713;53.254;6.460;2023-12-07T14:59:01;1.10;99.90
51637;DHT22;37713;53.254;6.460;2023-12-07T15:01:28;1.10;99.90
51637;DHT22;37713;53.254;6.460;2023-12-07T15:03:54;1.10;99.90
51637;DHT22;37713;53.254;6.460;2023-12-07T15:06:19;1.00;99.90
51637;DHT22;37713;53.254;6.460;2023-12-07T15:08:45;1.00;99.90
51637;DHT22;37713;53.254;6.460;2023-12-07T15:11:12;1.00;99.90
51637;DHT22;37713;53.254;6.460;2023-12-07T15:13:38;1.00;99.90
51637;DHT22;37713;53.254;6.460;2023-12-07T15:16:05;1.00;99.90
51637;DHT22;37713;53.254;6.460;2023-12-07T15:18:31;1.00;99.90
51637;DHT22;37713;53.254;6.460;2023-12-07T15:21:03;1.10;99.90
51637;DHT22;37713;53.254;6.460;2023-12-07T15:23:29;1.00;99.90
51637;DHT22;37713;53.254;6.460;2023-12-07T15:25:59;1.20;99.90
51637;DHT22;37713;53.254;6.460;2023-12-07T15:28:25;1.00;99.90
51637;DHT22;37713;53.254;6.460;2023-12-07T15:30:51;1.10;99.90
51637;DHT22;37713;53.254;6.460;2023-12-07T15:33:17;1.10;99.90
51637;DHT22;37713;53.254;6.460;2023-12-07T15:35:43;1.10;99.90
51637;DHT22;37713;53.254;6.460;2023-12-07T15:38:09;1.10;99.90
51637;DHT22;37713;53.254;6.460;2023-12-07T15:40:38;1.10;99.90
51637;DHT22;37713;53.254;6.460;2023-12-07T15:43:04;1.20;99.90
51637;DHT22;37713;53.254;6.460;2023-12-07T15:45:30;1.10;99.90
51637;DHT22;37713;53.254;6.460;2023-12-07T15:47:56;1.20;99.90